Time;durP1;ratioP1;P1;durP2;ratioP2;P2;SDS_P1;SDS_P2;PMS_P1;PMS_P2;Temp;Humidity;BMP_temperature;BMP_pressure;BME280_temperature;BME280_humidity;BME280_pressure;Samples;Min_cycle;Max_cycle;Signal;HPM_P1;HPM_P2
2021/06/28 00:01:41;;;;;;;7.00;3.97;;;16.80;99.90;;;;;;4981637;28;20511;-85
2021/06/28 00:04:10;;;;;;;8.15;4.07;;;16.80;99.90;;;;;;4977447;28;20058;-85
2021/06/28 00:06:41;;;;;;;8.03;4.57;;;16.80;99.90;;;;;;4978708;28;20054;-84
2021/06/28 00:09:14;;;;;;;5.85;4.15;;;16.80;99.90;;;;;;4978413;28;20051;-84
2021/06/28 00:11:42;;;;;;;11.43;5.40;;;16.80;99.90;;;;;;4979390;28;20067;-83
2021/06/28 00:14:11;;;;;;;8.65;5.43;;;16.80;99.90;;;;;;4978480;28;20062;-84
2021/06/28 00:16:39;;;;;;;12.90;6.60;;;16.80;99.90;;;;;;4975809;28;20051;-83
2021/06/28 00:19:11;;;;;;;14.52;6.35;;;16.80;99.90;;;;;;4980211;28;20053;-84
2021/06/28 00:21:39;;;;;;;14.73;7.25;;;16.80;99.90;;;;;;4976591;28;20058;-82
2021/06/28 00:24:07;;;;;;;16.60;8.30;;;16.80;99.90;;;;;;4987014;28;20065;-83
2021/06/28 00:26:38;;;;;;;20.15;8.43;;;16.70;99.90;;;;;;4998016;28;20054;-84
2021/06/28 00:29:05;;;;;;;17.40;8.50;;;16.70;99.90;;;;;;4981559;28;20047;-84
2021/06/28 00:31:35;;;;;;;18.20;10.27;;;16.70;99.90;;;;;;4979322;28;20054;-83
2021/06/28 00:34:07;;;;;;;15.60;8.23;;;16.70;99.90;;;;;;4976989;28;20048;-85
2021/06/28 00:36:38;;;;;;;23.92;9.82;;;16.70;99.90;;;;;;4960199;29;20062;-84
2021/06/28 00:39:06;;;;;;;18.33;10.52;;;16.70;99.90;;;;;;4974586;28;20066;-83
2021/06/28 00:41:39;;;;;;;23.90;9.20;;;16.40;99.90;;;;;;5000037;28;20050;-84
2021/06/28 00:44:08;;;;;;;17.42;9.57;;;16.70;99.90;;;;;;5001677;28;20054;-86
2021/06/28 00:46:36;;;;;;;18.55;10.40;;;16.70;99.90;;;;;;4963635;28;20066;-84
2021/06/28 00:49:08;;;;;;;21.85;10.70;;;16.60;99.90;;;;;;4961265;28;20398;-85
2021/06/28 00:51:36;;;;;;;21.77;10.55;;;16.60;99.90;;;;;;4948043;28;20055;-84
2021/06/28 00:54:05;;;;;;;16.45;8.98;;;16.60;99.90;;;;;;4980733;28;20058;-86
2021/06/28 00:56:33;;;;;;;18.50;11.45;;;16.60;99.90;;;;;;4980474;28;20074;-83
2021/06/28 00:59:03;;;;;;;23.83;9.63;;;16.60;99.90;;;;;;4980131;28;20055;-83
2021/06/28 01:01:33;;;;;;;36.80;9.57;;;16.60;99.90;;;;;;4970565;28;20055;-84
2021/06/28 01:04:01;;;;;;;17.05;9.30;;;16.60;99.90;;;;;;4928419;29;20066;-84
2021/06/28 01:06:30;;;;;;;19.48;9.85;;;16.60;99.90;;;;;;4943633;29;20070;-83
2021/06/28 01:08:58;;;;;;;16.55;8.85;;;16.60;99.90;;;;;;4959384;29;20070;-83
2021/06/28 01:11:28;;;;;;;15.35;8.50;;;16.60;99.90;;;;;;4961011;29;20064;-85
2021/06/28 01:13:58;;;;;;;14.30;7.40;;;16.60;99.90;;;;;;4959771;29;20055;-85
2021/06/28 01:16:32;;;;;;;15.15;7.85;;;16.60;99.90;;;;;;4944195;29;20051;-86
2021/06/28 01:19:04;;;;;;;12.80;6.88;;;16.60;99.90;;;;;;4959549;29;20487;-84
2021/06/28 01:21:39;;;;;;;14.43;7.43;;;16.60;99.90;;;;;;4961844;28;20047;-83
2021/06/28 01:24:11;;;;;;;14.85;6.88;;;16.60;99.90;;;;;;4941237;28;20063;-83
2021/06/28 01:26:40;;;;;;;15.30;7.50;;;16.60;99.90;;;;;;4941393;29;20059;-85
2021/06/28 01:29:08;;;;;;;13.75;7.78;;;16.60;99.90;;;;;;4957147;28;20059;-85
2021/06/28 01:31:38;;;;;;;14.68;6.25;;;16.60;99.90;;;;;;4971910;28;20051;-83
2021/06/28 01:34:07;;;;;;;12.63;5.90;;;16.60;99.90;;;;;;4947007;29;20066;-86
2021/06/28 01:36:43;;;;;;;15.45;5.82;;;16.60;99.90;;;;;;4961557;28;20054;-84
2021/06/28 01:39:11;;;;;;;14.55;6.95;;;16.40;99.90;;;;;;4955553;28;20070;-84
2021/06/28 01:41:41;;;;;;;15.07;7.18;;;16.60;99.90;;;;;;4956839;28;20047;-85
2021/06/28 01:44:10;;;;;;;12.18;6.90;;;16.60;99.90;;;;;;4959347;28;20062;-86
2021/06/28 01:46:40;;;;;;;13.60;6.70;;;16.60;99.90;;;;;;4997357;28;20062;-85
2021/06/28 01:49:12;;;;;;;12.98;7.35;;;16.60;99.90;;;;;;4967645;28;20050;-85
2021/06/28 01:51:40;;;;;;;17.02;8.13;;;16.60;99.90;;;;;;4999542;28;20054;-83
2021/06/28 01:54:08;;;;;;;12.93;6.53;;;16.60;99.90;;;;;;4966132;28;20057;-83
2021/06/28 01:56:36;;;;;;;16.77;7.40;;;18.20;99.90;;;;;;4998251;28;20053;-85
2021/06/28 01:59:09;;;;;;;15.35;7.68;;;16.60;99.90;;;;;;4983131;28;20047;-84
2021/06/28 02:01:39;;;;;;;18.55;8.00;;;16.60;99.90;;;;;;4983094;28;20061;-85
2021/06/28 02:04:18;;;;;;;14.80;7.33;;;17.40;99.90;;;;;;4996067;28;20055;-83
2021/06/28 02:06:48;;;;;;;17.38;8.65;;;16.60;99.90;;;;;;4963280;28;20066;-83
2021/06/28 02:09:21;;;;;;;14.70;8.32;;;16.60;99.90;;;;;;4981411;28;20055;-84
2021/06/28 02:11:50;;;;;;;13.35;7.53;;;16.70;99.90;;;;;;4981110;28;20050;-83
2021/06/28 02:14:21;;;;;;;20.30;8.88;;;16.70;99.90;;;;;;4987708;28;20054;-85
2021/06/28 02:16:50;;;;;;;17.27;8.88;;;16.70;99.90;;;;;;4965451;28;20051;-84
2021/06/28 02:19:21;;;;;;;15.45;8.10;;;16.70;99.90;;;;;;4974774;28;20050;-85
2021/06/28 02:21:49;;;;;;;16.38;8.38;;;16.70;99.90;;;;;;4986075;28;20043;-85
2021/06/28 02:24:17;;;;;;;17.25;8.27;;;16.70;99.90;;;;;;5005651;28;20046;-83
2021/06/28 02:26:50;;;;;;;18.23;9.80;;;16.40;99.90;;;;;;4986336;28;20050;-84
2021/06/28 02:29:26;;;;;;;19.30;10.10;;;16.70;99.90;;;;;;5017446;28;20064;-87
2021/06/28 02:31:54;;;;;;;23.50;13.10;;;16.80;99.90;;;;;;5007353;28;20050;-85
2021/06/28 02:34:24;;;;;;;25.10;12.35;;;16.80;99.90;;;;;;5000583;28;20057;-86
2021/06/28 02:36:51;;;;;;;24.30;14.10;;;18.30;99.90;;;;;;5003324;28;20073;-89
2021/06/28 02:39:20;;;;;;;27.92;14.57;;;16.80;99.90;;;;;;5006143;28;20161;-88
2021/06/28 02:42:19;;;;;;;30.52;15.02;;;16.80;99.90;;;;;;5101189;27;20421;-83
2021/06/28 02:45:09;;;;;;;32.10;16.02;;;16.90;99.90;;;;;;5089151;28;20053;-83
2021/06/28 02:47:37;;;;;;;32.15;17.70;;;16.90;99.90;;;;;;5065847;28;20150;-83
2021/06/28 02:50:15;;;;;;;36.85;22.40;;;16.90;99.90;;;;;;5082946;28;20048;-83
2021/06/28 02:52:43;;;;;;;37.38;22.02;;;16.90;99.90;;;;;;5096151;28;20061;-83
2021/06/28 02:55:12;;;;;;;52.33;28.67;;;16.90;99.90;;;;;;5080372;28;20063;-83
2021/06/28 02:57:41;;;;;;;47.97;25.45;;;16.90;99.90;;;;;;5062171;28;20053;-82
2021/06/28 03:00:14;;;;;;;56.70;27.58;;;16.90;99.90;;;;;;5086639;28;20060;-83
2021/06/28 03:02:58;;;;;;;48.33;28.92;;;17.00;99.90;;;;;;5163076;27;20394;-83
2021/06/28 03:05:38;;;;;;;55.20;31.67;;;17.00;99.90;;;;;;5020520;27;1351989;-83
2021/06/28 03:08:30;;;;;;;49.38;30.38;;;17.00;99.90;;;;;;5081118;27;20553;-84
2021/06/28 03:11:23;;;;;;;55.97;28.15;;;17.00;99.90;;;;;;5102220;27;20405;-82
2021/06/28 03:14:19;;;;;;;56.17;29.83;;;17.00;99.90;;;;;;5101599;27;20354;-81
2021/06/28 03:17:21;;;;;;;54.35;29.30;;;17.00;99.90;;;;;;5205818;27;20370;-82
2021/06/28 03:19:59;;;;;;;44.15;23.38;;;17.00;99.90;;;;;;5107006;27;20448;-84
2021/06/28 03:22:51;;;;;;;42.08;21.45;;;17.00;99.90;;;;;;5115530;27;20416;-84
2021/06/28 03:25:46;;;;;;;40.13;19.90;;;16.90;99.90;;;;;;5084110;27;20400;-82
2021/06/28 03:28:23;;;;;;;38.30;20.42;;;16.90;99.90;;;;;;5091811;27;1330288;-83
2021/06/28 03:31:03;;;;;;;38.72;17.60;;;16.90;99.90;;;;;;5119054;27;20415;-82
2021/06/28 03:33:42;;;;;;;35.67;18.35;;;16.90;99.90;;;;;;5078306;27;1336774;-83
2021/06/28 03:36:22;;;;;;;34.10;18.52;;;16.10;99.90;;;;;;5114556;27;20434;-85
2021/06/28 03:39:16;;;;;;;33.20;18.52;;;16.90;99.90;;;;;;5081426;27;20792;-82
2021/06/28 03:42:09;;;;;;;30.13;16.25;;;16.90;99.90;;;;;;5102189;27;20416;-83
2021/06/28 03:44:48;;;;;;;33.83;16.27;;;16.90;99.90;;;;;;5094898;27;20919;-84
2021/06/28 03:47:37;;;;;;;37.13;18.23;;;16.90;99.90;;;;;;5061341;28;20385;-82
2021/06/28 03:50:29;;;;;;;27.02;15.55;;;16.90;99.90;;;;;;5069330;27;20409;-83
2021/06/28 03:53:10;;;;;;;27.00;15.43;;;16.90;99.90;;;;;;5013169;27;1352772;-83
2021/06/28 03:55:55;;;;;;;27.33;15.20;;;16.80;99.90;;;;;;5178038;27;20400;-85
2021/06/28 03:58:37;;;;;;;29.90;16.52;;;16.90;99.90;;;;;;5057065;27;2336986;-85
2021/06/28 04:01:16;;;;;;;38.53;19.27;;;16.90;99.90;;;;;;5132509;27;20365;-85
2021/06/28 04:04:01;;;;;;;38.33;19.13;;;16.80;99.90;;;;;;5123091;27;20389;-82
2021/06/28 04:06:42;;;;;;;51.17;23.63;;;16.90;99.90;;;;;;5139226;27;20380;-84
2021/06/28 04:09:25;;;;;;;40.67;22.88;;;16.80;99.90;;;;;;5077561;27;1436525;-82
2021/06/28 04:12:06;;;;;;;51.03;25.67;;;16.80;99.90;;;;;;5114782;27;20376;-84
2021/06/28 04:25:19;;;;;;;63.33;30.17;;;16.80;99.90;;;;;;5156785;27;20390;-84
2021/06/28 04:27:58;;;;;;;69.38;34.15;;;16.80;99.90;;;;;;5079946;27;1354725;-83
2021/06/28 04:30:50;;;;;;;76.60;34.50;;;16.80;99.90;;;;;;5106910;27;20420;-82
2021/06/28 04:33:54;;;;;;;69.78;32.35;;;16.90;99.90;;;;;;5205564;27;20381;-84
2021/06/28 04:36:44;;;;;;;71.65;34.42;;;16.90;99.90;;;;;;5152418;27;20107;-84
2021/06/28 04:39:23;;;;;;;72.45;34.72;;;16.90;99.90;;;;;;5075696;27;1460488;-83
2021/06/28 04:42:26;;;;;;;75.90;36.50;;;16.90;99.90;;;;;;5205663;27;20373;-83
2021/06/28 04:45:13;;;;;;;73.00;35.35;;;16.90;99.90;;;;;;5181773;27;20397;-82
2021/06/28 04:47:52;;;;;;;77.97;32.90;;;16.90;99.90;;;;;;4956626;27;4994563;-83
2021/06/28 04:50:35;;;;;;;76.55;34.70;;;16.90;99.90;;;;;;5162258;27;20415;-83
2021/06/28 04:53:18;;;;;;;71.07;34.70;;;16.90;99.90;;;;;;5061223;27;20427;-84
2021/06/28 04:55:56;;;;;;;86.97;38.13;;;16.90;99.90;;;;;;5078860;27;1451196;-84
2021/06/28 04:58:49;;;;;;;88.07;34.72;;;16.90;99.90;;;;;;5082374;27;20411;-84
2021/06/28 05:01:26;;;;;;;71.07;35.95;;;16.90;99.90;;;;;;5063336;27;1369400;-85
2021/06/28 05:04:07;;;;;;;83.72;36.58;;;16.90;99.90;;;;;;5137121;27;20145;-83
2021/06/28 05:06:48;;;;;;;83.00;39.22;;;16.90;99.90;;;;;;5120912;27;20415;-83
2021/06/28 05:09:27;;;;;;;74.35;31.92;;;16.90;99.90;;;;;;5149676;27;20427;-85
2021/06/28 05:12:34;;;;;;;76.57;34.83;;;16.90;99.90;;;;;;5203994;27;20373;-83
2021/06/28 05:15:15;;;;;;;76.25;36.10;;;16.90;99.90;;;;;;5093883;27;1432954;-84
2021/06/28 05:17:56;;;;;;;86.07;39.97;;;16.80;99.90;;;;;;5084614;28;20384;-84
2021/06/28 05:20:52;;;;;;;75.53;37.35;;;16.90;99.90;;;;;;5132849;27;20419;-86
2021/06/28 05:24:31;;;;;;;74.10;34.58;;;16.90;99.90;;;;;;5079475;28;20437;-86
2021/06/28 05:27:24;;;;;;;83.60;36.67;;;16.90;99.90;;;;;;5080791;27;20432;-83
2021/06/28 05:30:18;;;;;;;85.65;34.80;;;16.90;99.90;;;;;;5105091;27;20404;-84
2021/06/28 05:32:58;;;;;;;66.97;31.85;;;16.90;99.90;;;;;;5085936;28;20935;-84
2021/06/28 05:35:40;;;;;;;63.50;31.38;;;16.90;99.90;;;;;;5118061;27;20391;-84
2021/06/28 05:38:23;;;;;;;66.05;34.40;;;16.90;99.90;;;;;;5125685;27;20438;-84
2021/06/28 05:41:22;;;;;;;68.05;33.00;;;17.00;99.90;;;;;;5196247;27;20391;-83
2021/06/28 05:44:04;;;;;;;76.30;34.70;;;17.00;99.90;;;;;;5110108;27;20390;-84
2021/06/28 05:58:00;;;;;;;55.80;26.58;;;17.00;99.90;;;;;;5203995;27;20377;-83
2021/06/28 06:00:39;;;;;;;55.75;29.00;;;17.00;99.90;;;;;;5072448;27;21022;-83
2021/06/28 06:03:16;;;;;;;53.90;27.38;;;17.10;99.90;;;;;;5071179;27;1712853;-84
2021/06/28 06:06:13;;;;;;;52.90;27.85;;;17.10;99.90;;;;;;5199774;27;20383;-85
2021/06/28 06:09:00;;;;;;;55.67;28.40;;;17.10;99.90;;;;;;5118450;27;20385;-83
2021/06/28 06:11:40;;;;;;;62.15;30.02;;;17.10;99.90;;;;;;5070691;27;1597287;-83
2021/06/28 06:14:44;;;;;;;58.00;29.10;;;17.10;99.90;;;;;;5191909;27;20374;-82
2021/06/28 06:17:22;;;;;;;57.65;29.60;;;17.10;99.90;;;;;;5053822;27;2016858;-81
2021/06/28 06:30:36;;;;;;;78.85;29.23;;;17.10;99.90;;;;;;5079665;28;20149;-82
2021/06/28 06:33:22;;;;;;;71.50;30.10;;;17.20;99.90;;;;;;5153600;27;20399;-84
2021/06/28 06:36:11;;;;;;;74.38;30.27;;;16.40;99.90;;;;;;4635949;27;10511459;-81
2021/06/28 06:38:58;;;;;;;76.50;32.72;;;17.20;99.90;;;;;;5078295;28;20675;-82
2021/06/28 06:41:49;;;;;;;74.60;31.37;;;17.20;99.90;;;;;;5003677;27;2490372;-81
2021/06/28 06:45:02;;;;;;;67.47;30.05;;;17.20;99.90;;;;;;5096121;28;21095;-82
2021/06/28 06:48:01;;;;;;;75.25;31.10;;;17.20;99.90;;;;;;5110845;27;20408;-83
2021/06/28 06:50:41;;;;;;;82.75;32.78;;;16.60;99.90;;;;;;5124630;27;20108;-80
2021/06/28 06:53:48;;;;;;;74.88;30.02;;;17.10;99.90;;;;;;4828106;27;6903653;-82
2021/06/28 07:00:40;;;;;;;65.78;27.77;;;17.10;99.90;;;;;;5053667;28;20382;-83
2021/06/28 07:03:40;;;;;;;61.97;27.90;;;17.10;99.90;;;;;;5104290;28;20146;-82
2021/06/28 07:06:44;;;;;;;80.32;31.63;;;17.00;99.90;;;;;;5088163;27;20160;-85
2021/06/28 07:09:26;;;;;;;64.85;26.83;;;17.00;99.90;;;;;;5081155;28;20958;-83
2021/06/28 07:12:06;;;;;;;81.35;31.80;;;17.10;99.90;;;;;;5040354;27;1386389;-83
2021/06/28 07:14:58;;;;;;;57.40;27.27;;;17.10;99.90;;;;;;5070293;28;20397;-83
2021/06/28 07:28:05;;;;;;;63.28;28.15;;;15.90;99.90;;;;;;5089075;27;20402;-84
2021/06/28 07:30:44;;;;;;;56.42;27.98;;;17.10;99.90;;;;;;5109307;27;20394;-85
2021/06/28 07:33:22;;;;;;;66.03;29.00;;;17.10;99.90;;;;;;5152192;27;20393;-83
2021/06/28 07:36:17;;;;;;;65.45;28.08;;;17.20;99.90;;;;;;5079662;27;20408;-83
2021/06/28 07:39:02;;;;;;;60.72;26.15;;;17.20;99.90;;;;;;5139626;27;20415;-86
2021/06/28 07:41:42;;;;;;;51.53;27.38;;;17.30;99.90;;;;;;5066932;28;20489;-83
2021/06/28 07:44:24;;;;;;;62.67;29.63;;;17.30;99.90;;;;;;5071048;28;20438;-84
2021/06/28 07:47:02;;;;;;;55.22;25.25;;;17.30;99.90;;;;;;5113073;27;20380;-85
2021/06/28 07:49:39;;;;;;;61.85;31.65;;;17.30;99.90;;;;;;4986306;27;3991525;-85
2021/06/28 07:52:17;;;;;;;51.13;26.30;;;17.30;99.90;;;;;;5146048;27;20417;-84
2021/06/28 07:54:57;;;;;;;44.67;23.80;;;17.40;99.90;;;;;;5096188;27;20402;-83
2021/06/28 07:57:39;;;;;;;55.78;26.98;;;17.50;99.90;;;;;;5098062;27;20453;-83
2021/06/28 08:00:19;;;;;;;48.22;23.50;;;17.50;99.90;;;;;;5119465;27;20412;-82
2021/06/28 08:02:58;;;;;;;50.38;24.35;;;17.50;99.90;;;;;;4909265;27;6285225;-83
2021/06/28 08:16:28;;;;;;;53.10;24.75;;;16.40;99.90;;;;;;5090013;28;20144;-83
2021/06/28 08:19:06;;;;;;;57.22;22.30;;;17.40;99.90;;;;;;5078075;28;20915;-82
2021/06/28 08:21:45;;;;;;;50.70;23.10;;;17.60;99.90;;;;;;5063103;27;1670275;-85
2021/06/28 08:24:23;;;;;;;58.03;24.77;;;17.60;99.90;;;;;;5005394;27;1311468;-84
2021/06/28 08:27:03;;;;;;;54.30;22.98;;;17.60;99.90;;;;;;5039127;27;2295063;-85
2021/06/28 08:30:08;;;;;;;49.92;22.25;;;17.50;99.90;;;;;;5084536;28;20387;-83
2021/06/28 08:32:46;;;;;;;51.17;21.45;;;17.50;99.90;;;;;;5096927;28;20407;-88
2021/06/28 08:35:26;;;;;;;41.78;17.45;;;17.50;99.90;;;;;;5143351;27;20507;-84
2021/06/28 08:38:03;;;;;;;24.95;14.50;;;17.50;99.90;;;;;;5047262;27;2155676;-83
2021/06/28 08:40:43;;;;;;;26.90;12.10;;;17.50;99.90;;;;;;5093836;27;20514;-83
2021/06/28 08:43:36;;;;;;;27.73;12.98;;;17.50;99.90;;;;;;5150364;27;20393;-83
2021/06/28 08:46:29;;;;;;;28.10;14.15;;;17.40;99.90;;;;;;5089807;27;20407;-82
2021/06/28 08:49:08;;;;;;;32.42;15.48;;;17.50;99.90;;;;;;5008390;27;1362628;-82
2021/06/28 08:51:47;;;;;;;31.85;14.63;;;17.50;99.90;;;;;;5010972;27;1395686;-82
2021/06/28 08:54:27;;;;;;;36.45;14.60;;;17.60;99.90;;;;;;5095922;27;20386;-84
2021/06/28 08:57:07;;;;;;;31.70;13.45;;;17.70;99.90;;;;;;5129831;27;20377;-83
2021/06/28 08:59:46;;;;;;;26.80;12.98;;;17.70;99.90;;;;;;5104598;27;20470;-84
2021/06/28 09:02:25;;;;;;;26.65;14.48;;;17.80;99.90;;;;;;5140499;27;20389;-83
2021/06/28 09:05:17;;;;;;;24.35;12.52;;;17.80;99.90;;;;;;5090229;27;20414;-82
2021/06/28 09:08:23;;;;;;;29.23;13.20;;;17.90;99.90;;;;;;5201125;27;20438;-83
2021/06/28 09:11:03;;;;;;;21.55;10.05;;;18.00;99.90;;;;;;5074364;28;20445;-82
2021/06/28 09:13:45;;;;;;;23.02;10.85;;;18.10;99.90;;;;;;5097720;27;20378;-82
2021/06/28 09:16:43;;;;;;;20.98;10.48;;;18.10;99.90;;;;;;5148415;27;20386;-83
2021/06/28 09:29:52;;;;;;;22.20;12.80;;;18.20;99.90;;;;;;5181185;27;20801;-82
2021/06/28 09:32:31;;;;;;;22.67;11.20;;;18.30;99.90;;;;;;5131265;27;20420;-83
2021/06/28 09:35:12;;;;;;;23.83;11.90;;;18.30;99.90;;;;;;5092990;27;20413;-83
2021/06/28 09:37:49;;;;;;;22.63;13.15;;;18.30;99.90;;;;;;4936851;27;5439161;-82
2021/06/28 09:40:53;;;;;;;26.75;14.70;;;18.20;99.90;;;;;;5140041;27;20384;-83
2021/06/28 09:43:37;;;;;;;35.13;15.80;;;17.60;99.90;;;;;;5097717;27;20580;-84
2021/06/28 09:46:22;;;;;;;30.27;15.05;;;18.20;99.90;;;;;;5117892;27;20396;-83
2021/06/28 09:49:18;;;;;;;30.02;15.43;;;18.20;99.90;;;;;;5132469;27;20403;-83
2021/06/28 09:51:58;;;;;;;30.10;14.63;;;18.20;99.90;;;;;;5075068;28;20427;-85
2021/06/28 09:54:50;;;;;;;27.58;15.23;;;18.30;99.90;;;;;;5089533;27;20503;-83
2021/06/28 10:08:15;;;;;;;36.85;20.08;;;18.40;99.90;;;;;;5093189;27;20391;-82
2021/06/28 10:11:11;;;;;;;36.78;20.23;;;18.70;99.90;;;;;;5101786;27;20412;-84
2021/06/28 10:13:59;;;;;;;36.17;21.15;;;18.60;99.90;;;;;;3936381;27;33276188;-82
2021/06/28 10:16:56;;;;;;;46.15;24.13;;;18.60;99.90;;;;;;5096287;27;20398;-83
2021/06/28 10:19:52;;;;;;;40.50;21.35;;;18.70;99.90;;;;;;5179354;27;20373;-84
2021/06/28 10:22:51;;;;;;;41.47;21.40;;;18.70;99.90;;;;;;5173811;27;20387;-84
2021/06/28 10:25:55;;;;;;;37.38;20.67;;;18.70;99.90;;;;;;5065067;27;20951;-85
2021/06/28 10:28:54;;;;;;;37.42;21.77;;;18.70;99.90;;;;;;5184057;27;20378;-85
2021/06/28 10:31:49;;;;;;;39.95;22.63;;;18.70;99.90;;;;;;5087114;27;20498;-84
2021/06/28 10:34:52;;;;;;;35.63;21.55;;;18.80;99.90;;;;;;5097166;27;20386;-83
2021/06/28 10:38:01;;;;;;;37.58;21.55;;;18.80;99.90;;;;;;5128395;27;20394;-83
2021/06/28 10:40:59;;;;;;;46.38;21.73;;;18.90;99.90;;;;;;5191774;27;20379;-82
2021/06/28 10:43:56;;;;;;;35.85;20.75;;;18.90;99.90;;;;;;5089651;27;20444;-82
2021/06/28 10:46:46;;;;;;;33.08;18.73;;;19.00;99.90;;;;;;5067121;28;20425;-84
2021/06/28 10:49:50;;;;;;;36.53;20.17;;;19.00;99.90;;;;;;5026310;27;1320667;-81
2021/06/28 10:52:46;;;;;;;37.00;20.65;;;19.00;99.90;;;;;;5141615;27;20429;-83
2021/06/28 10:55:37;;;;;;;37.08;20.10;;;19.00;99.90;;;;;;5123924;28;20055;-82
2021/06/28 10:58:31;;;;;;;42.05;21.33;;;18.90;99.90;;;;;;5136214;28;20062;-82
2021/06/28 11:01:36;;;;;;;43.53;23.52;;;18.90;99.90;;;;;;5122738;28;20054;-83
2021/06/28 11:04:37;;;;;;;42.90;20.33;;;18.90;99.90;;;;;;5143129;27;20058;-83
2021/06/28 11:07:24;;;;;;;43.33;24.30;;;18.90;99.90;;;;;;5130263;27;20054;-82
2021/06/28 11:10:35;;;;;;;35.53;20.75;;;19.00;99.90;;;;;;5135937;28;20054;-82
2021/06/28 11:13:28;;;;;;;41.55;22.13;;;19.00;99.90;;;;;;5139507;27;20066;-83
2021/06/28 11:16:33;;;;;;;39.08;21.48;;;19.10;99.90;;;;;;5136785;28;20088;-82
2021/06/28 11:19:51;;;;;;;41.28;22.42;;;19.10;99.90;;;;;;5135179;27;20074;-83
2021/06/28 11:22:52;;;;;;;44.08;22.35;;;19.10;99.90;;;;;;5134584;27;20054;-82
2021/06/28 11:25:24;;;;;;;42.55;22.40;;;19.10;99.90;;;;;;5136571;28;20055;-82
2021/06/28 11:28:04;;;;;;;39.95;20.65;;;19.10;99.90;;;;;;4069982;27;30253907;-85
2021/06/28 11:31:13;;;;;;;43.40;23.08;;;19.20;99.90;;;;;;5119074;27;20395;-83
2021/06/28 11:34:50;;;;;;;38.33;23.30;;;19.20;99.90;;;;;;5121910;27;20416;-83
2021/06/28 11:37:18;;;;;;;44.08;21.33;;;19.20;99.90;;;;;;5113060;28;20059;-83
2021/06/28 11:39:54;;;;;;;39.83;22.05;;;19.20;99.90;;;;;;5117711;28;20071;-83
2021/06/28 11:43:06;;;;;;;40.90;22.42;;;19.20;99.90;;;;;;5091590;27;20398;-88
2021/06/28 11:46:11;;;;;;;37.05;20.23;;;19.30;99.90;;;;;;5200219;27;20952;-82
2021/06/28 11:49:05;;;;;;;39.25;22.67;;;19.30;99.90;;;;;;4539896;27;15061086;-83
2021/06/28 11:52:12;;;;;;;41.30;22.65;;;19.30;99.90;;;;;;5191282;27;20414;-83
2021/06/28 11:55:25;;;;;;;32.33;18.08;;;19.40;99.90;;;;;;5192490;27;20393;-83
2021/06/28 11:58:31;;;;;;;35.38;20.40;;;19.50;99.90;;;;;;5077100;27;20397;-86
2021/06/28 12:01:08;;;;;;;39.47;20.60;;;19.50;99.90;;;;;;4354004;27;20897250;-83
2021/06/28 12:03:46;;;;;;;47.73;22.33;;;19.60;99.90;;;;;;4611531;27;15072694;-83
2021/06/28 12:06:44;;;;;;;35.47;19.92;;;19.60;99.90;;;;;;5098417;27;20825;-83
2021/06/28 12:09:46;;;;;;;32.63;18.98;;;19.70;99.90;;;;;;5186312;27;20389;-82
2021/06/28 12:12:37;;;;;;;40.80;23.08;;;19.80;99.90;;;;;;5119465;27;20405;-84
2021/06/28 12:15:35;;;;;;;36.25;21.02;;;19.90;99.90;;;;;;5117460;27;20428;-84
2021/06/28 12:18:35;;;;;;;31.58;16.52;;;20.20;99.90;;;;;;5191027;27;20381;-83
2021/06/28 12:21:41;;;;;;;29.30;17.02;;;20.40;99.90;;;;;;5107537;27;20451;-84
2021/06/28 12:24:46;;;;;;;30.55;18.33;;;20.70;99.90;;;;;;5089438;27;20397;-83
2021/06/28 12:27:40;;;;;;;28.48;16.48;;;20.90;99.90;;;;;;5046367;28;20848;-82
2021/06/28 12:30:22;;;;;;;30.23;17.52;;;21.10;99.90;;;;;;5084713;27;21102;-85
2021/06/28 12:33:08;;;;;;;26.70;14.95;;;21.30;99.90;;;;;;5095354;27;20459;-85
2021/06/28 12:35:58;;;;;;;22.65;12.70;;;21.50;99.90;;;;;;5097966;28;20443;-84
2021/06/28 12:38:44;;;;;;;38.05;16.10;;;21.80;99.90;;;;;;5158693;27;20435;-85
2021/06/28 12:42:01;;;;;;;;;;;;;;;;;;;;;
2021/06/28 12:44:53;;;;;;;20.92;10.35;;;22.20;99.90;;;;;;5053278;27;1493524;-84
2021/06/28 12:47:49;;;;;;;26.88;14.25;;;22.30;99.90;;;;;;5090604;27;20411;-84
2021/06/28 12:50:33;;;;;;;19.83;12.40;;;22.30;99.90;;;;;;4978605;27;4078965;-87
2021/06/28 12:53:18;;;;;;;30.63;12.05;;;22.40;99.90;;;;;;5127516;27;20427;-80
2021/06/28 12:56:13;;;;;;;27.15;15.10;;;22.30;99.90;;;;;;4297235;27;24077896;-83
2021/06/28 12:59:37;;;;;;;28.08;12.48;;;22.10;99.90;;;;;;5139557;27;20464;-82
2021/06/28 13:02:32;;;;;;;25.35;15.70;;;22.00;99.90;;;;;;5092059;27;20491;-83
2021/06/28 13:05:40;;;;;;;28.38;14.05;;;21.80;99.90;;;;;;5188270;27;20843;-83
2021/06/28 13:09:30;;;;;;;30.83;15.05;;;21.90;99.90;;;;;;5097369;27;20408;-86
2021/06/28 13:12:27;;;;;;;21.55;11.63;;;21.90;99.90;;;;;;5093355;27;20403;-81
2021/06/28 13:15:28;;;;;;;21.02;10.95;;;22.00;99.90;;;;;;5092215;27;20428;-84
2021/06/28 13:18:50;;;;;;;24.80;13.20;;;22.00;99.90;;;;;;5191351;27;20373;-86
2021/06/28 13:22:05;;;;;;;29.90;14.40;;;22.10;99.90;;;;;;5194984;27;20377;-83
2021/06/28 13:35:30;;;;;;;23.13;11.23;;;22.00;99.90;;;;;;5023140;22;27208959;-85
2021/06/28 13:38:57;;;;;;;22.05;11.88;;;21.60;99.90;;;;;;5132270;27;20402;-84
2021/06/28 13:41:53;;;;;;;24.23;11.57;;;21.00;99.90;;;;;;5088286;27;20399;-82
2021/06/28 13:44:33;;;;;;;22.65;12.45;;;21.50;99.90;;;;;;4413151;27;18815342;-82
2021/06/28 13:47:58;;;;;;;27.35;12.95;;;21.50;99.90;;;;;;5193851;27;20375;-82
2021/06/28 13:51:15;;;;;;;19.00;11.23;;;21.70;99.90;;;;;;5123690;27;20420;-82
2021/06/28 13:54:27;;;;;;;20.90;9.88;;;21.80;99.90;;;;;;5118604;27;20429;-84
2021/06/28 13:57:59;;;;;;;19.20;10.23;;;22.00;99.90;;;;;;5203261;27;21040;-82
2021/06/28 14:01:19;;;;;;;19.05;10.18;;;22.10;99.90;;;;;;5107154;27;20412;-81
2021/06/28 14:04:17;;;;;;;13.07;7.28;;;22.20;99.90;;;;;;5204073;27;20416;-83
2021/06/28 14:07:36;;;;;;;17.30;8.50;;;22.30;99.90;;;;;;5120402;27;20413;-81
2021/06/28 14:10:33;;;;;;;16.58;8.07;;;22.30;99.90;;;;;;5094903;27;20418;-81
2021/06/28 14:13:25;;;;;;;17.73;9.68;;;22.20;99.90;;;;;;5100253;27;20425;-84
2021/06/28 14:16:18;;;;;;;19.92;11.55;;;22.10;99.90;;;;;;5100589;27;20416;-81
2021/06/28 14:19:23;;;;;;;21.67;11.57;;;22.00;99.90;;;;;;5203085;27;20381;-82
2021/06/28 14:22:20;;;;;;;17.88;9.30;;;21.90;99.90;;;;;;5192702;27;20398;-78
2021/06/28 14:25:40;;;;;;;17.63;9.38;;;21.90;99.90;;;;;;5116955;27;20351;-79
2021/06/28 14:28:37;;;;;;;18.48;9.93;;;22.20;99.90;;;;;;5103628;27;20418;-80
2021/06/28 14:31:35;;;;;;;17.75;9.23;;;22.30;99.90;;;;;;5199609;27;20393;-80
2021/06/28 14:35:00;;;;;;;22.52;9.82;;;22.50;99.90;;;;;;5097892;27;20394;-82
2021/06/28 14:38:29;;;;;;;16.48;8.77;;;22.90;99.90;;;;;;5197601;27;20393;-78
2021/06/28 14:41:45;;;;;;;19.48;8.35;;;22.90;99.90;;;;;;5192007;27;20871;-78
2021/06/28 14:44:37;;;;;;;16.17;7.93;;;23.20;99.90;;;;;;5094169;27;20402;-80
2021/06/28 14:47:40;;;;;;;14.00;7.28;;;23.50;99.90;;;;;;5110245;27;20402;-78
2021/06/28 14:50:42;;;;;;;13.30;7.20;;;23.80;99.90;;;;;;5070186;28;20344;-79
2021/06/28 14:53:19;;;;;;;12.68;6.90;;;24.10;99.90;;;;;;3888182;27;33242761;-80
2021/06/28 14:56:16;;;;;;;13.75;6.28;;;24.20;99.90;;;;;;5038277;28;20489;-84
2021/06/28 14:59:03;;;;;;;11.48;6.07;;;24.40;99.90;;;;;;4414189;27;18686707;-79
2021/06/28 15:01:58;;;;;;;12.25;6.75;;;24.50;99.90;;;;;;5185444;27;20390;-81
2021/06/28 15:04:51;;;;;;;12.82;6.38;;;24.60;99.90;;;;;;5090437;27;20414;-79
2021/06/28 15:07:54;;;;;;;12.20;6.75;;;24.50;99.90;;;;;;5079402;27;20431;-85
2021/06/28 15:11:25;;;;;;;13.52;6.60;;;24.30;99.90;;;;;;5188869;27;20387;-80
2021/06/28 15:14:01;;;;;;;14.85;8.55;;;24.10;99.90;;;;;;3874441;27;34237955;-79
2021/06/28 15:16:38;;;;;;;9.30;5.10;;;24.10;99.90;;;;;;4461652;27;18792017;-79
2021/06/28 15:19:34;;;;;;;20.33;6.43;;;23.90;99.90;;;;;;5093669;27;20411;-78
2021/06/28 15:22:32;;;;;;;14.95;7.50;;;23.90;99.90;;;;;;5122088;27;20414;-80
2021/06/28 15:25:37;;;;;;;25.80;7.72;;;24.30;99.90;;;;;;5111556;27;20402;-78
2021/06/28 15:28:30;;;;;;;14.32;6.20;;;24.00;99.90;;;;;;5095583;27;20410;-81
2021/06/28 15:31:26;;;;;;;12.02;5.95;;;24.10;99.90;;;;;;5022826;28;20416;-83
2021/06/28 15:34:25;;;;;;;12.95;5.57;;;24.30;99.90;;;;;;5190841;27;20412;-80
2021/06/28 15:37:27;;;;;;;8.93;4.50;;;24.40;99.90;;;;;;5179755;27;20545;-79
2021/06/28 15:40:23;;;;;;;10.80;4.75;;;24.30;99.90;;;;;;5188943;27;20740;-80